Crossville, Illinois
Current Conditions -  °F | °C
As of 1:15 PM on Friday 21 Nov 2014 (Local Time) from KCUL Reporting Station
Clear Clear  
Wind Chill: 36°   Ceiling: Unl
Heat Index: 43°   Visibility: 10mi
Dew Point: 21°   Wind: 13mph
Humidity: 43%   Direction: 120°ESE
Pressure: 30.41"   Gusts: NA
Location:  38.16°N, 88.07°W
Report Text: KCUL 211915Z AUTO 12011KT 10SM CLR 06/M06 A3041 RMK AO2 T00591060
Loading
Personal Weather Stations






























Interactive Weather Map New forecast layout! Learn more

10-Day Weather Forecast

Advertisements
Track Severe Weather on mobile